Elkhart, IA (50073)

12:26 AM CDT on April 25, 2015 (GMT -0500)
IADOT | | Change Station
CLOSE
Current Station
Personal Weather Station
Location: Elkhart, IA
Elevation: 866 ft
Nearby Weather Stations

Elev 866 ft 41.76 °N, 93.57 °W | Updated 25 minutes ago

Overcast
Overcast
48 °F
Feels Like 44 °F
N
10
Wind Variable Wind from East
Gusts 21.0 mph

Today
High -- | Low -- °F
--% Chance of Precip.
Yesterday
High -- | Low -- °F
Precip. -- in
6:19 AM 8:05 PM
Waxing Crescent, 42% visible
Pressure 29.64 in
Visibility 9.0 miles
Clouds Overcast 1700 ft
Windchill 44 °F
Dew Point 46 °F
Humidity 92%
Rainfall in
Snow Depth Not available.
UV 0 out of 12
Pollen 10.30 out of 12
Air Quality Not available.
Flu Activity Local Activity
METAR KIKV 250515Z AUTO 07007G14KT 050V110 9SM OVC017 09/07 A2964 RMK AO2

More Conditions Fewer Conditions

Pressure 29.64 in
Visibility 9.0 miles
Clouds Overcast 1700 ft
Windchill 44 °F
Dew Point 46 °F
Humidity 92%
Rainfall in
Snow Depth Not available.
UV 0 out of 12
Pollen 10.30 out of 12
Air Quality Not available.
Flu Activity Local Activity
METAR KIKV 250515Z AUTO 07007G14KT 050V110 9SM OVC017 09/07 A2964 RMK AO2

More Conditions Fewer Conditions

10-Day Weather Forecast

Almanac

Astronomy

Apr. 25, 2015 Rise Set
Actual Time
Civil Twilight
Nautical Twilight
Astronomical Twilight
Moon
Length of Visible Light
Length of Day
Tomorrow will be .
, % of the Moon is Illuminated

Today's Extremes

State Highs State Lows

Community

WunderPhotos

Upload Photos

1,816,609 photos uploaded!

WunderBlogs® & News

Nearby

Air Quality

  Air Quality AQ Index Pollutant
Not available.

Snow Depth

Station Depth Elevation

Earthquake Activity

City Distance Mag. Time & Date
Minimum magnitude displayed is 2.5.

Coastal Water Temperatures

Place Temperature

Stations

Nearby Weather Stations

Station Location Temp. Windchill Dew Point Humidity Wind Precip. Elev Updated Type